sensor_id;sensor_type;location;lat;lon;timestamp;P1;durP1;ratioP1;P2;durP2;ratioP2
53939;SDS011;39850;43.324;21.916;2023-12-20T00:01:58;176.0;;;123.0;;
53939;SDS011;39850;43.324;21.916;2023-12-20T00:06:34;176.0;;;123.0;;
53939;SDS011;39850;43.324;21.916;2023-12-20T00:11:10;176.0;;;123.0;;
53939;SDS011;39850;43.324;21.916;2023-12-20T00:15:47;198.0;;;132.0;;
53939;SDS011;39850;43.324;21.916;2023-12-20T00:20:23;198.0;;;132.0;;
53939;SDS011;39850;43.324;21.916;2023-12-20T00:24:59;173.0;;;117.0;;
53939;SDS011;39850;43.324;21.916;2023-12-20T00:29:36;173.0;;;117.0;;
53939;SDS011;39850;43.324;21.916;2023-12-20T01:01:51;113.0;;;82.0;;
53939;SDS011;39850;43.324;21.916;2023-12-20T01:06:27;113.0;;;82.0;;
53939;SDS011;39850;43.324;21.916;2023-12-20T01:11:05;113.0;;;82.0;;
53939;SDS011;39850;43.324;21.916;2023-12-20T01:15:42;119.0;;;86.0;;
53939;SDS011;39850;43.324;21.916;2023-12-20T01:20:18;119.0;;;86.0;;
53939;SDS011;39850;43.324;21.916;2023-12-20T01:24:54;122.0;;;87.0;;
53939;SDS011;39850;43.324;21.916;2023-12-20T01:29:31;122.0;;;87.0;;
53939;SDS011;39850;43.324;21.916;2023-12-20T01:34:07;124.0;;;88.0;;
53939;SDS011;39850;43.324;21.916;2023-12-20T01:38:43;124.0;;;88.0;;
53939;SDS011;39850;43.324;21.916;2023-12-20T01:43:20;122.0;;;87.0;;
53939;SDS011;39850;43.324;21.916;2023-12-20T01:48:00;122.0;;;87.0;;
53939;SDS011;39850;43.324;21.916;2023-12-20T02:24:59;173.0;;;117.0;;
53939;SDS011;39850;43.324;21.916;2023-12-20T02:29:37;173.0;;;117.0;;
53939;SDS011;39850;43.324;21.916;2023-12-20T02:34:13;162.0;;;111.0;;
53939;SDS011;39850;43.324;21.916;2023-12-20T02:38:49;162.0;;;111.0;;
53939;SDS011;39850;43.324;21.916;2023-12-20T02:43:25;150.0;;;105.0;;
53939;SDS011;39850;43.324;21.916;2023-12-20T02:48:04;150.0;;;105.0;;
53939;SDS011;39850;43.324;21.916;2023-12-20T02:52:45;144.0;;;102.0;;
53939;SDS011;39850;43.324;21.916;2023-12-20T02:57:21;144.0;;;102.0;;
53939;SDS011;39850;43.324;21.916;2023-12-20T03:01:58;144.0;;;102.0;;
53939;SDS011;39850;43.324;21.916;2023-12-20T03:06:34;139.0;;;98.0;;
53939;SDS011;39850;43.324;21.916;2023-12-20T03:11:11;139.0;;;98.0;;
53939;SDS011;39850;43.324;21.916;2023-12-20T03:43:25;158.0;;;110.0;;
53939;SDS011;39850;43.324;21.916;2023-12-20T03:48:01;158.0;;;110.0;;
53939;SDS011;39850;43.324;21.916;2023-12-20T03:52:38;160.0;;;112.0;;
53939;SDS011;39850;43.324;21.916;2023-12-20T03:57:14;160.0;;;112.0;;
53939;SDS011;39850;43.324;21.916;2023-12-20T04:01:51;160.0;;;112.0;;
53939;SDS011;39850;43.324;21.916;2023-12-20T04:06:27;158.0;;;110.0;;
53939;SDS011;39850;43.324;21.916;2023-12-20T04:11:07;158.0;;;110.0;;
53939;SDS011;39850;43.324;21.916;2023-12-20T04:15:44;159.0;;;111.0;;
53939;SDS011;39850;43.324;21.916;2023-12-20T04:20:20;159.0;;;111.0;;
53939;SDS011;39850;43.324;21.916;2023-12-20T04:24:56;157.0;;;109.0;;
53939;SDS011;39850;43.324;21.916;2023-12-20T04:29:33;157.0;;;109.0;;
53939;SDS011;39850;43.324;21.916;2023-12-20T05:06:24;122.0;;;87.0;;
53939;SDS011;39850;43.324;21.916;2023-12-20T05:11:01;122.0;;;87.0;;
53939;SDS011;39850;43.324;21.916;2023-12-20T05:15:37;120.0;;;86.0;;
53939;SDS011;39850;43.324;21.916;2023-12-20T05:20:14;120.0;;;86.0;;
53939;SDS011;39850;43.324;21.916;2023-12-20T05:24:50;122.0;;;87.0;;
53939;SDS011;39850;43.324;21.916;2023-12-20T05:29:27;122.0;;;87.0;;
53939;SDS011;39850;43.324;21.916;2023-12-20T05:34:03;136.0;;;98.0;;
53939;SDS011;39850;43.324;21.916;2023-12-20T05:38:40;136.0;;;98.0;;
53939;SDS011;39850;43.324;21.916;2023-12-20T05:43:16;154.0;;;113.0;;
53939;SDS011;39850;43.324;21.916;2023-12-20T05:47:52;154.0;;;113.0;;
53939;SDS011;39850;43.324;21.916;2023-12-20T05:52:29;154.0;;;113.0;;
53939;SDS011;39850;43.324;21.916;2023-12-20T06:24:47;178.0;;;125.0;;
53939;SDS011;39850;43.324;21.916;2023-12-20T06:29:23;178.0;;;125.0;;
53939;SDS011;39850;43.324;21.916;2023-12-20T06:34:00;178.0;;;125.0;;
53939;SDS011;39850;43.324;21.916;2023-12-20T06:38:36;178.0;;;125.0;;
53939;SDS011;39850;43.324;21.916;2023-12-20T06:43:13;146.0;;;106.0;;
53939;SDS011;39850;43.324;21.916;2023-12-20T06:47:50;146.0;;;106.0;;
53939;SDS011;39850;43.324;21.916;2023-12-20T06:52:27;146.0;;;106.0;;
53939;SDS011;39850;43.324;21.916;2023-12-20T06:57:04;114.0;;;87.0;;
53939;SDS011;39850;43.324;21.916;2023-12-20T07:01:40;114.0;;;87.0;;
53939;SDS011;39850;43.324;21.916;2023-12-20T07:06:16;114.0;;;87.0;;
53939;SDS011;39850;43.324;21.916;2023-12-20T07:10:53;114.0;;;87.0;;
53939;SDS011;39850;43.324;21.916;2023-12-20T07:47:47;86.0;;;69.0;;
53939;SDS011;39850;43.324;21.916;2023-12-20T07:52:24;86.0;;;69.0;;
53939;SDS011;39850;43.324;21.916;2023-12-20T07:57:00;90.0;;;72.0;;
53939;SDS011;39850;43.324;21.916;2023-12-20T08:01:36;90.0;;;72.0;;
53939;SDS011;39850;43.324;21.916;2023-12-20T08:06:13;93.0;;;76.0;;
53939;SDS011;39850;43.324;21.916;2023-12-20T08:10:49;93.0;;;76.0;;
53939;SDS011;39850;43.324;21.916;2023-12-20T08:15:25;94.0;;;76.0;;
53939;SDS011;39850;43.324;21.916;2023-12-20T08:20:07;94.0;;;76.0;;
53939;SDS011;39850;43.324;21.916;2023-12-20T08:24:44;96.0;;;77.0;;
53939;SDS011;39850;43.324;21.916;2023-12-20T08:29:20;96.0;;;77.0;;
53939;SDS011;39850;43.324;21.916;2023-12-20T09:06:12;84.0;;;69.0;;
53939;SDS011;39850;43.324;21.916;2023-12-20T09:10:48;84.0;;;69.0;;
53939;SDS011;39850;43.324;21.916;2023-12-20T09:15:27;82.0;;;68.0;;
53939;SDS011;39850;43.324;21.916;2023-12-20T09:20:07;82.0;;;68.0;;
53939;SDS011;39850;43.324;21.916;2023-12-20T09:24:43;84.0;;;69.0;;
53939;SDS011;39850;43.324;21.916;2023-12-20T09:29:20;84.0;;;69.0;;
53939;SDS011;39850;43.324;21.916;2023-12-20T09:33:56;87.0;;;72.0;;
53939;SDS011;39850;43.324;21.916;2023-12-20T09:38:32;87.0;;;72.0;;
53939;SDS011;39850;43.324;21.916;2023-12-20T09:43:19;87.0;;;72.0;;
53939;SDS011;39850;43.324;21.916;2023-12-20T09:47:59;94.0;;;76.0;;
53939;SDS011;39850;43.324;21.916;2023-12-20T09:52:41;94.0;;;76.0;;
53939;SDS011;39850;43.324;21.916;2023-12-20T10:25:08;48.0;;;42.0;;
53939;SDS011;39850;43.324;21.916;2023-12-20T10:29:45;48.0;;;42.0;;
53939;SDS011;39850;43.324;21.916;2023-12-20T10:34:21;48.0;;;42.0;;
53939;SDS011;39850;43.324;21.916;2023-12-20T10:39:01;48.0;;;42.0;;
53939;SDS011;39850;43.324;21.916;2023-12-20T10:43:41;48.0;;;42.0;;
53939;SDS011;39850;43.324;21.916;2023-12-20T10:48:21;49.0;;;43.0;;
53939;SDS011;39850;43.324;21.916;2023-12-20T10:52:59;49.0;;;43.0;;
53939;SDS011;39850;43.324;21.916;2023-12-20T10:57:37;52.0;;;46.0;;
53939;SDS011;39850;43.324;21.916;2023-12-20T11:02:14;52.0;;;46.0;;
53939;SDS011;39850;43.324;21.916;2023-12-20T11:07:27;56.0;;;48.0;;
53939;SDS011;39850;43.324;21.916;2023-12-20T11:12:36;56.0;;;48.0;;
53939;SDS011;39850;43.324;21.916;2023-12-20T11:45:03;52.0;;;44.0;;
53939;SDS011;39850;43.324;21.916;2023-12-20T11:49:40;52.0;;;44.0;;
53939;SDS011;39850;43.324;21.916;2023-12-20T11:54:16;66.0;;;55.0;;
53939;SDS011;39850;43.324;21.916;2023-12-20T11:58:53;66.0;;;55.0;;
53939;SDS011;39850;43.324;21.916;2023-12-20T12:03:32;66.0;;;55.0;;
53939;SDS011;39850;43.324;21.916;2023-12-20T12:08:08;75.0;;;63.0;;
53939;SDS011;39850;43.324;21.916;2023-12-20T12:12:45;75.0;;;63.0;;
53939;SDS011;39850;43.324;21.916;2023-12-20T12:17:21;78.0;;;64.0;;
53939;SDS011;39850;43.324;21.916;2023-12-20T12:22:12;78.0;;;64.0;;
53939;SDS011;39850;43.324;21.916;2023-12-20T12:26:52;75.0;;;63.0;;
53939;SDS011;39850;43.324;21.916;2023-12-20T12:31:28;75.0;;;63.0;;
53939;SDS011;39850;43.324;21.916;2023-12-20T13:08:23;76.0;;;58.0;;
53939;SDS011;39850;43.324;21.916;2023-12-20T13:12:59;76.0;;;58.0;;
53939;SDS011;39850;43.324;21.916;2023-12-20T13:17:35;75.0;;;60.0;;
53939;SDS011;39850;43.324;21.916;2023-12-20T13:22:12;75.0;;;60.0;;
53939;SDS011;39850;43.324;21.916;2023-12-20T13:26:48;74.0;;;58.0;;
53939;SDS011;39850;43.324;21.916;2023-12-20T13:31:25;74.0;;;58.0;;
53939;SDS011;39850;43.324;21.916;2023-12-20T13:36:02;74.0;;;60.0;;
53939;SDS011;39850;43.324;21.916;2023-12-20T13:40:38;74.0;;;60.0;;
53939;SDS011;39850;43.324;21.916;2023-12-20T13:45:16;74.0;;;58.0;;
53939;SDS011;39850;43.324;21.916;2023-12-20T13:49:52;74.0;;;58.0;;
53939;SDS011;39850;43.324;21.916;2023-12-20T14:26:43;74.0;;;55.0;;
53939;SDS011;39850;43.324;21.916;2023-12-20T14:31:20;74.0;;;55.0;;
53939;SDS011;39850;43.324;21.916;2023-12-20T14:35:56;79.0;;;60.0;;
53939;SDS011;39850;43.324;21.916;2023-12-20T14:40:32;79.0;;;60.0;;
53939;SDS011;39850;43.324;21.916;2023-12-20T14:45:12;84.0;;;64.0;;
53939;SDS011;39850;43.324;21.916;2023-12-20T14:49:48;84.0;;;64.0;;
53939;SDS011;39850;43.324;21.916;2023-12-20T14:54:25;84.0;;;64.0;;
53939;SDS011;39850;43.324;21.916;2023-12-20T14:59:01;110.0;;;82.0;;
53939;SDS011;39850;43.324;21.916;2023-12-20T15:03:38;110.0;;;82.0;;
53939;SDS011;39850;43.324;21.916;2023-12-20T15:08:15;135.0;;;101.0;;
53939;SDS011;39850;43.324;21.916;2023-12-20T15:12:51;135.0;;;101.0;;
53939;SDS011;39850;43.324;21.916;2023-12-20T15:45:10;195.0;;;123.0;;
53939;SDS011;39850;43.324;21.916;2023-12-20T15:49:46;195.0;;;123.0;;
53939;SDS011;39850;43.324;21.916;2023-12-20T15:54:22;195.0;;;123.0;;
53939;SDS011;39850;43.324;21.916;2023-12-20T15:58:59;208.0;;;132.0;;
53939;SDS011;39850;43.324;21.916;2023-12-20T16:03:35;208.0;;;132.0;;
53939;SDS011;39850;43.324;21.916;2023-12-20T16:08:12;222.0;;;141.0;;
53939;SDS011;39850;43.324;21.916;2023-12-20T16:12:49;222.0;;;141.0;;
53939;SDS011;39850;43.324;21.916;2023-12-20T16:17:25;226.0;;;148.0;;
53939;SDS011;39850;43.324;21.916;2023-12-20T16:22:01;226.0;;;148.0;;
53939;SDS011;39850;43.324;21.916;2023-12-20T16:26:38;231.0;;;156.0;;
53939;SDS011;39850;43.324;21.916;2023-12-20T16:31:14;231.0;;;156.0;;
53939;SDS011;39850;43.324;21.916;2023-12-20T17:08:09;711.0;;;507.0;;
53939;SDS011;39850;43.324;21.916;2023-12-20T17:12:45;711.0;;;507.0;;
53939;SDS011;39850;43.324;21.916;2023-12-20T17:17:22;748.0;;;533.0;;
53939;SDS011;39850;43.324;21.916;2023-12-20T17:21:58;748.0;;;533.0;;
53939;SDS011;39850;43.324;21.916;2023-12-20T17:26:35;711.0;;;507.0;;
53939;SDS011;39850;43.324;21.916;2023-12-20T17:31:11;711.0;;;507.0;;
53939;SDS011;39850;43.324;21.916;2023-12-20T17:35:48;670.0;;;486.0;;
53939;SDS011;39850;43.324;21.916;2023-12-20T17:40:24;670.0;;;486.0;;
53939;SDS011;39850;43.324;21.916;2023-12-20T17:45:00;670.0;;;486.0;;
53939;SDS011;39850;43.324;21.916;2023-12-20T17:49:37;556.0;;;413.0;;
53939;SDS011;39850;43.324;21.916;2023-12-20T17:54:13;556.0;;;413.0;;
53939;SDS011;39850;43.324;21.916;2023-12-20T18:26:31;672.0;;;476.0;;
53939;SDS011;39850;43.324;21.916;2023-12-20T18:31:07;672.0;;;476.0;;
53939;SDS011;39850;43.324;21.916;2023-12-20T18:35:44;653.0;;;476.0;;
53939;SDS011;39850;43.324;21.916;2023-12-20T18:40:21;653.0;;;476.0;;
53939;SDS011;39850;43.324;21.916;2023-12-20T18:44:57;653.0;;;476.0;;
53939;SDS011;39850;43.324;21.916;2023-12-20T18:49:34;634.0;;;476.0;;
53939;SDS011;39850;43.324;21.916;2023-12-20T18:54:11;634.0;;;476.0;;
53939;SDS011;39850;43.324;21.916;2023-12-20T18:58:47;621.0;;;460.0;;
53939;SDS011;39850;43.324;21.916;2023-12-20T19:03:24;621.0;;;460.0;;
53939;SDS011;39850;43.324;21.916;2023-12-20T19:08:00;608.0;;;442.0;;
53939;SDS011;39850;43.324;21.916;2023-12-20T19:12:36;608.0;;;442.0;;
53939;SDS011;39850;43.324;21.916;2023-12-20T19:49:29;620.0;;;473.0;;
53939;SDS011;39850;43.324;21.916;2023-12-20T19:54:05;620.0;;;473.0;;
53939;SDS011;39850;43.324;21.916;2023-12-20T19:58:41;586.0;;;444.0;;
53939;SDS011;39850;43.324;21.916;2023-12-20T20:03:18;586.0;;;444.0;;
53939;SDS011;39850;43.324;21.916;2023-12-20T20:07:54;618.0;;;463.0;;
53939;SDS011;39850;43.324;21.916;2023-12-20T20:12:30;618.0;;;463.0;;
53939;SDS011;39850;43.324;21.916;2023-12-20T20:17:07;584.0;;;439.0;;
53939;SDS011;39850;43.324;21.916;2023-12-20T20:21:44;584.0;;;439.0;;
53939;SDS011;39850;43.324;21.916;2023-12-20T20:26:20;618.0;;;463.0;;
53939;SDS011;39850;43.324;21.916;2023-12-20T20:30:57;618.0;;;463.0;;
53939;SDS011;39850;43.324;21.916;2023-12-20T20:35:34;618.0;;;463.0;;
53939;SDS011;39850;43.324;21.916;2023-12-20T21:07:50;209.0;;;160.0;;
53939;SDS011;39850;43.324;21.916;2023-12-20T21:12:26;209.0;;;160.0;;
53939;SDS011;39850;43.324;21.916;2023-12-20T21:17:04;209.0;;;160.0;;
53939;SDS011;39850;43.324;21.916;2023-12-20T21:21:40;209.0;;;160.0;;
53939;SDS011;39850;43.324;21.916;2023-12-20T21:26:16;168.0;;;132.0;;
53939;SDS011;39850;43.324;21.916;2023-12-20T21:30:53;168.0;;;132.0;;
53939;SDS011;39850;43.324;21.916;2023-12-20T21:35:30;168.0;;;132.0;;
53939;SDS011;39850;43.324;21.916;2023-12-20T21:40:10;128.0;;;104.0;;
53939;SDS011;39850;43.324;21.916;2023-12-20T21:44:47;128.0;;;104.0;;
53939;SDS011;39850;43.324;21.916;2023-12-20T21:49:23;128.0;;;104.0;;
53939;SDS011;39850;43.324;21.916;2023-12-20T21:53:59;128.0;;;104.0;;
53939;SDS011;39850;43.324;21.916;2023-12-20T22:26:16;97.0;;;89.0;;
53939;SDS011;39850;43.324;21.916;2023-12-20T22:30:52;97.0;;;89.0;;
53939;SDS011;39850;43.324;21.916;2023-12-20T22:35:29;97.0;;;89.0;;
53939;SDS011;39850;43.324;21.916;2023-12-20T22:40:10;94.0;;;87.0;;
53939;SDS011;39850;43.324;21.916;2023-12-20T22:44:47;94.0;;;87.0;;
53939;SDS011;39850;43.324;21.916;2023-12-20T22:49:24;97.0;;;87.0;;
53939;SDS011;39850;43.324;21.916;2023-12-20T22:54:01;97.0;;;87.0;;
53939;SDS011;39850;43.324;21.916;2023-12-20T22:58:37;96.0;;;86.0;;
53939;SDS011;39850;43.324;21.916;2023-12-20T23:03:15;96.0;;;86.0;;
53939;SDS011;39850;43.324;21.916;2023-12-20T23:07:51;99.0;;;87.0;;
53939;SDS011;39850;43.324;21.916;2023-12-20T23:12:27;99.0;;;87.0;;
53939;SDS011;39850;43.324;21.916;2023-12-20T23:49:21;70.0;;;63.0;;
53939;SDS011;39850;43.324;21.916;2023-12-20T23:53:57;70.0;;;63.0;;
53939;SDS011;39850;43.324;21.916;2023-12-20T23:58:33;72.0;;;65.0;;
